Time;durP1;ratioP1;P1;durP2;ratioP2;P2;SDS_P1;SDS_P2;PMS_P1;PMS_P2;Temp;Humidity;BMP_temperature;BMP_pressure;BME280_temperature;BME280_humidity;BME280_pressure;Samples;Min_cycle;Max_cycle;Signal;HPM_P1;HPM_P2
2022/09/08 00:00:45;;;;;;;5.30;3.35;;;;;;;14.93;83.29;95320.91;5100688;27;20547;-67
2022/09/08 00:03:14;;;;;;;25.75;3.88;;;;;;;14.89;83.10;95325.03;5100302;28;20509;-67
2022/09/08 00:05:50;;;;;;;8.75;3.10;;;;;;;14.87;83.27;95321.88;5100784;27;20044;-67
2022/09/08 00:08:20;;;;;;;4.95;3.50;;;;;;;14.75;83.55;95326.47;5100365;28;20105;-66
2022/09/08 00:10:54;;;;;;;3.90;3.40;;;;;;;14.79;83.55;95324.94;5101598;27;20054;-67
2022/09/08 00:13:22;;;;;;;6.43;3.55;;;;;;;14.77;83.80;95319.94;5099610;28;20047;-67
2022/09/08 00:15:50;;;;;;;4.60;2.80;;;;;;;14.78;83.94;95323.34;5098722;28;20089;-67
2022/09/08 00:18:17;;;;;;;5.40;3.50;;;;;;;14.74;84.29;95328.28;5099415;28;20050;-67
2022/09/08 00:20:44;;;;;;;5.30;3.42;;;;;;;14.72;84.72;95331.16;5100405;28;20138;-66
2022/09/08 00:23:11;;;;;;;4.57;3.28;;;;;;;14.74;84.60;95332.75;5079534;28;20104;-66
2022/09/08 00:25:38;;;;;;;3.28;2.88;;;;;;;14.72;84.49;95325.91;5100005;28;20105;-66
2022/09/08 00:28:05;;;;;;;5.18;2.90;;;;;;;14.71;84.98;95326.97;5100030;28;20047;-67
2022/09/08 00:30:33;;;;;;;6.78;3.38;;;;;;;14.70;85.45;95328.00;5081952;28;20044;-66
2022/09/08 00:33:00;;;;;;;6.22;3.03;;;;;;;14.66;85.00;95332.16;5100331;28;20067;-66
2022/09/08 00:35:26;;;;;;;7.00;3.30;;;;;;;14.67;85.34;95338.16;5102373;27;20044;-67
2022/09/08 00:37:53;;;;;;;4.68;3.05;;;;;;;14.67;85.45;95338.97;5100438;28;20179;-66
2022/09/08 00:40:23;;;;;;;4.55;3.13;;;;;;;14.64;85.60;95338.66;5102010;28;20353;-66
2022/09/08 00:43:01;;;;;;;5.32;3.55;;;;;;;14.58;86.32;95337.81;5100121;28;20134;-67
2022/09/08 00:45:36;;;;;;;5.88;3.67;;;;;;;14.46;86.94;95331.88;5099958;28;20607;-66
2022/09/08 00:48:15;;;;;;;5.25;3.40;;;;;;;14.51;86.79;95339.78;5101252;28;20156;-66
2022/09/08 00:50:44;;;;;;;6.38;3.17;;;;;;;14.51;86.32;95339.78;5099466;28;20035;-66
2022/09/08 00:53:15;;;;;;;5.85;3.83;;;;;;;14.49;87.10;95331.38;5105135;28;20050;-66
2022/09/08 00:55:43;;;;;;;4.03;3.00;;;;;;;14.45;87.48;95335.50;5099578;28;20047;-65
2022/09/08 00:58:11;;;;;;;7.30;3.35;;;;;;;14.36;88.33;95331.72;5100848;28;20100;-66
2022/09/08 01:00:42;;;;;;;5.20;3.95;;;;;;;14.38;88.12;95329.66;5104039;28;20063;-66
2022/09/08 01:03:13;;;;;;;6.20;3.42;;;;;;;14.38;88.29;95324.41;5100994;28;20122;-66
2022/09/08 01:06:05;;;;;;;5.60;3.60;;;;;;;14.38;87.98;95319.19;5101794;28;20112;-66
2022/09/08 01:14:48;;;;;;;7.07;3.85;;;;;;;14.32;88.14;95326.97;5099366;28;20144;-66
2022/09/08 01:17:22;;;;;;;5.03;3.80;;;;;;;14.31;88.34;95325.41;5099020;28;20043;-66
2022/09/08 01:19:51;;;;;;;10.48;3.67;;;;;;;14.30;88.36;95328.25;5098417;28;20131;-66
2022/09/08 01:23:06;;;;;;;4.00;3.28;;;;;;;14.18;89.06;95324.94;5099107;28;20103;-66
2022/09/08 01:26:01;;;;;;;4.72;3.67;;;;;;;14.19;89.51;95331.75;5035998;28;20055;-67
2022/09/08 01:28:31;;;;;;;4.55;3.70;;;;;;;14.19;89.47;95322.09;5100070;28;20048;-66
2022/09/08 01:31:00;;;;;;;4.78;3.75;;;;;;;14.20;88.67;95328.88;5106302;27;20104;-67
2022/09/08 01:33:27;;;;;;;10.13;3.90;;;;;;;14.13;89.85;95317.78;5103966;28;20052;-67
2022/09/08 01:35:54;;;;;;;5.47;3.92;;;;;;;14.04;90.18;95319.25;5107833;27;20428;-66
2022/09/08 01:38:21;;;;;;;8.38;3.88;;;;;;;14.05;90.83;95315.59;5103662;28;20055;-66
2022/09/08 01:40:48;;;;;;;5.90;4.05;;;;;;;14.03;91.22;95317.66;5085638;28;20131;-67
2022/09/08 01:43:14;;;;;;;7.20;3.70;;;;;;;14.01;90.86;95317.09;5103599;28;20042;-66
2022/09/08 01:45:41;;;;;;;6.40;4.43;;;;;;;14.05;90.72;95320.84;5104258;28;20170;-67
2022/09/08 01:48:08;;;;;;;6.32;3.85;;;;;;;14.08;91.08;95321.16;5104787;27;20418;-66
2022/09/08 01:50:36;;;;;;;5.85;4.22;;;;;;;14.10;90.48;95331.38;5104538;27;20130;-66
2022/09/08 01:53:02;;;;;;;8.57;4.72;;;;;;;14.08;91.30;95330.81;5102969;27;20071;-66
2022/09/08 01:55:29;;;;;;;5.35;3.95;;;;;;;14.07;91.40;95329.25;5100985;28;20144;-67
2022/09/08 01:57:56;;;;;;;5.53;4.30;;;;;;;13.96;91.35;95313.38;5102860;28;20855;-66
2022/09/08 02:00:23;;;;;;;6.20;4.18;;;;;;;14.06;91.09;95322.41;5086848;28;20326;-66
2022/09/08 02:02:50;;;;;;;5.25;4.00;;;;;;;14.00;91.53;95318.13;5103665;27;20046;-66
2022/09/08 02:05:17;;;;;;;32.17;4.43;;;;;;;13.93;92.37;95313.84;5104015;28;20047;-67
2022/09/08 02:07:50;;;;;;;9.77;4.50;;;;;;;13.95;92.39;95301.34;5104723;27;20527;-66
2022/09/08 02:10:17;;;;;;;6.65;4.13;;;;;;;13.83;92.98;95308.47;5104372;27;20040;-66
2022/09/08 02:12:44;;;;;;;4.95;4.40;;;;;;;13.79;93.55;95309.97;5105891;27;20093;-66
2022/09/08 02:15:11;;;;;;;5.63;4.38;;;;;;;13.72;93.68;95302.28;5106368;27;20832;-66
2022/09/08 02:17:38;;;;;;;6.25;4.28;;;;;;;13.74;94.07;95304.69;5100818;28;20483;-66
2022/09/08 02:20:05;;;;;;;11.70;5.20;;;;;;;13.70;94.32;95303.53;5103991;27;20458;-66
2022/09/08 02:22:32;;;;;;;5.45;4.55;;;;;;;13.70;94.51;95303.53;5103127;27;20055;-66
2022/09/08 02:24:59;;;;;;;6.43;5.03;;;;;;;13.68;94.54;95301.16;5099759;27;20540;-66
2022/09/08 02:27:26;;;;;;;6.30;4.85;;;;;;;13.67;94.96;95304.03;5089043;28;20687;-65
2022/09/08 02:29:52;;;;;;;5.63;4.72;;;;;;;13.57;95.07;95289.75;5105587;27;20092;-66
2022/09/08 02:32:19;;;;;;;5.70;4.78;;;;;;;13.63;95.03;95297.69;5102326;28;20073;-66
2022/09/08 02:34:47;;;;;;;8.13;5.05;;;;;;;13.61;95.54;95304.97;5104371;27;20624;-66
2022/09/08 02:37:13;;;;;;;6.13;4.70;;;;;;;13.56;95.29;95309.13;5103019;28;20036;-65
2022/09/08 02:39:40;;;;;;;5.88;4.85;;;;;;;13.51;96.23;95306.41;5101347;28;20032;-65
2022/09/08 02:42:08;;;;;;;7.00;4.82;;;;;;;13.47;96.53;95300.06;5106537;27;20047;-66
2022/09/08 02:44:35;;;;;;;18.40;5.38;;;;;;;13.52;95.80;95305.38;5102902;27;20058;-66
2022/09/08 02:47:02;;;;;;;9.15;5.25;;;;;;;13.53;96.10;95304.34;5101337;27;20144;-66
2022/09/08 02:49:30;;;;;;;10.55;4.63;;;;;;;13.52;95.55;95305.38;5085287;27;20113;-66
2022/09/08 02:51:56;;;;;;;7.07;4.90;;;;;;;13.49;95.42;95313.72;5100173;28;20100;-67
2022/09/08 02:54:23;;;;;;;5.53;4.57;;;;;;;13.51;95.41;95305.63;5117420;27;20532;-65
2022/09/08 02:56:50;;;;;;;7.82;5.07;;;;;;;13.46;95.67;95298.47;5105789;27;20363;-67
2022/09/08 02:59:17;;;;;;;6.28;4.88;;;;;;;13.42;96.00;95281.66;5105065;27;20043;-66
2022/09/08 03:01:44;;;;;;;5.82;4.70;;;;;;;13.39;95.80;95282.13;5104329;27;20052;-66
2022/09/08 03:04:11;;;;;;;6.65;4.47;;;;;;;13.32;96.52;95281.50;5105666;27;20090;-66
2022/09/08 03:06:38;;;;;;;6.05;4.65;;;;;;;13.23;96.92;95272.41;5101255;27;20043;-66
2022/09/08 03:09:06;;;;;;;7.95;4.78;;;;;;;13.32;96.98;95286.72;5101574;28;20625;-66
2022/09/08 03:11:33;;;;;;;6.95;5.10;;;;;;;13.26;97.40;95287.66;5101549;28;20047;-66
2022/09/08 03:14:01;;;;;;;15.27;4.97;;;;;;;13.25;97.41;95291.28;5100176;27;20067;-66
2022/09/08 03:16:28;;;;;;;6.65;5.07;;;;;;;13.26;97.49;95292.88;5106848;27;20561;-66
2022/09/08 03:18:54;;;;;;;6.68;4.28;;;;;;;13.25;97.75;95286.06;5101992;27;20609;-65
2022/09/08 03:21:21;;;;;;;6.75;4.55;;;;;;;13.25;97.78;95288.66;5099078;27;20043;-66
2022/09/08 03:23:48;;;;;;;6.90;5.25;;;;;;;13.23;97.81;95293.34;5101003;27;20051;-65
2022/09/08 03:26:21;;;;;;;7.47;4.90;;;;;;;13.20;98.19;95290.19;5101284;27;20036;-66
2022/09/08 03:28:52;;;;;;;7.32;5.00;;;;;;;13.18;98.34;95292.25;5100679;28;20071;-66
2022/09/08 03:31:20;;;;;;;7.80;4.97;;;;;;;13.19;98.21;95304.28;5115616;27;20131;-65
2022/09/08 03:33:48;;;;;;;8.38;4.90;;;;;;;13.20;97.75;95305.88;5104255;27;20035;-66
2022/09/08 03:36:15;;;;;;;8.07;5.53;;;;;;;13.20;97.98;95308.50;5104179;27;20595;-66
2022/09/08 03:38:43;;;;;;;6.40;5.32;;;;;;;13.20;97.78;95311.09;5098306;28;20528;-66
2022/09/08 03:41:13;;;;;;;7.03;5.40;;;;;;;13.17;97.85;95316.00;5098366;28;20563;-66
2022/09/08 03:43:45;;;;;;;6.47;5.43;;;;;;;13.10;97.79;95317.97;5103211;27;20502;-67
2022/09/08 03:46:13;;;;;;;8.25;5.80;;;;;;;13.13;97.63;95320.91;5101478;28;20497;-67
2022/09/08 03:48:39;;;;;;;9.48;5.60;;;;;;;13.08;98.14;95317.41;5101411;28;20044;-66
2022/09/08 03:51:27;;;;;;;11.88;5.40;;;;;;;13.00;98.75;95308.13;5101453;28;20107;-67
2022/09/08 03:56:42;;;;;;;7.80;5.90;;;;;;;12.99;99.59;95309.16;5099620;28;20508;-66
2022/09/08 03:59:10;;;;;;;6.75;5.70;;;;;;;12.95;100.00;95305.44;5105845;27;20431;-66
2022/09/08 04:01:37;;;;;;;9.13;6.45;;;;;;;12.94;100.00;95306.44;5101548;27;20517;-65
2022/09/08 04:04:04;;;;;;;9.93;6.75;;;;;;;13.01;100.00;95307.09;5100603;28;20596;-65
2022/09/08 04:06:32;;;;;;;9.20;6.00;;;;;;;12.99;99.78;95315.16;5100781;27;20101;-67
2022/09/08 04:08:59;;;;;;;7.25;5.68;;;;;;;13.02;99.88;95316.53;5104366;27;20039;-66
2022/09/08 04:11:26;;;;;;;8.98;5.82;;;;;;;13.03;100.00;95310.25;5101755;28;20546;-65
2022/09/08 04:13:52;;;;;;;8.40;5.93;;;;;;;13.04;99.86;95301.41;5102748;27;20058;-64
2022/09/08 04:16:19;;;;;;;9.63;6.60;;;;;;;13.13;99.46;95301.81;5103716;27;20051;-66
2022/09/08 04:18:46;;;;;;;10.13;6.13;;;;;;;13.11;99.79;95296.81;5103777;27;20038;-65
2022/09/08 04:21:13;;;;;;;12.15;7.00;;;;;;;13.14;100.00;95301.59;5101484;27;20055;-65
2022/09/08 04:23:40;;;;;;;10.35;5.93;;;;;;;13.20;100.00;95305.88;5099498;28;20367;-65
2022/09/08 04:26:12;;;;;;;8.95;6.22;;;;;;;13.25;99.94;95301.75;5099961;28;20079;-65
2022/09/08 04:28:39;;;;;;;12.30;6.80;;;;;;;13.25;100.00;95296.50;5099582;28;20512;-65
2022/09/08 04:31:11;;;;;;;12.02;5.70;;;;;;;13.31;100.00;95296.41;5103513;27;20050;-65
2022/09/08 04:33:39;;;;;;;16.13;8.77;;;;;;;13.33;99.89;95301.41;5101436;28;20044;-65
2022/09/08 04:36:12;;;;;;;7.78;6.38;;;;;;;13.37;100.00;95305.13;5101274;28;20424;-65
2022/09/08 04:38:53;;;;;;;8.48;7.15;;;;;;;13.44;99.78;95305.78;5098634;28;20128;-66
2022/09/08 04:41:19;;;;;;;7.85;6.50;;;;;;;13.46;99.68;95302.91;5100418;28;20143;-66
2022/09/08 04:43:46;;;;;;;9.65;5.70;;;;;;;13.52;99.47;95313.25;5100096;28;20036;-66
2022/09/08 04:46:15;;;;;;;7.57;6.30;;;;;;;13.61;98.50;95325.91;5098009;28;20139;-66
2022/09/08 04:48:43;;;;;;;7.75;6.82;;;;;;;13.68;98.24;95321.31;5099480;28;20063;-66
2022/09/08 04:51:13;;;;;;;18.83;12.43;;;;;;;13.76;98.45;95326.16;5099364;28;20311;-66
2022/09/08 04:53:39;;;;;;;13.73;7.63;;;;;;;13.87;97.36;95314.81;5096467;28;20040;-65
2022/09/08 04:56:09;;;;;;;9.98;6.60;;;;;;;14.01;96.87;95314.47;5098245;28;20574;-64
2022/09/08 04:58:37;;;;;;;7.30;5.80;;;;;;;14.04;97.09;95314.00;5102103;28;20072;-66
2022/09/08 05:01:15;;;;;;;11.02;6.00;;;;;;;14.20;96.06;95307.94;5100752;28;20170;-65
2022/09/08 05:03:42;;;;;;;7.18;6.20;;;;;;;14.27;95.52;95313.00;5099357;28;20039;-66
2022/09/08 05:06:16;;;;;;;6.07;5.45;;;;;;;14.42;95.35;95309.78;5102019;28;20060;-66
2022/09/08 05:08:44;;;;;;;8.23;5.85;;;;;;;14.52;95.06;95304.69;5101712;28;20276;-66
2022/09/08 05:11:12;;;;;;;9.32;5.85;;;;;;;14.64;94.41;95310.63;5103907;27;20047;-65
2022/09/08 05:13:40;;;;;;;8.82;5.65;;;;;;;14.76;93.89;95320.97;5101638;28;20044;-65
2022/09/08 05:16:14;;;;;;;9.27;5.70;;;;;;;14.90;93.92;95318.78;5084479;27;20040;-64
2022/09/08 05:18:45;;;;;;;6.55;5.47;;;;;;;15.09;92.87;95316.63;5103685;27;20054;-66
2022/09/08 05:21:12;;;;;;;8.57;5.68;;;;;;;15.20;92.55;95325.41;5101009;28;20075;-66
2022/09/08 05:23:39;;;;;;;8.90;5.28;;;;;;;15.32;91.70;95328.63;5101397;27;20477;-66
2022/09/08 05:26:09;;;;;;;7.85;5.82;;;;;;;15.44;91.11;95326.66;5077939;28;20046;-75
2022/09/08 05:28:38;;;;;;;5.68;4.35;;;;;;;15.59;90.22;95325.19;5103332;27;20122;-68
2022/09/08 05:31:12;;;;;;;9.00;4.55;;;;;;;15.78;88.09;95331.69;5095541;27;20480;-68
2022/09/08 05:33:39;;;;;;;5.65;4.50;;;;;;;15.91;87.33;95340.19;5104585;27;20612;-67
2022/09/08 05:36:16;;;;;;;5.47;4.78;;;;;;;16.04;86.89;95339.75;5100644;27;20601;-68
2022/09/08 05:38:44;;;;;;;7.18;4.80;;;;;;;16.21;86.28;95344.88;5101632;27;20073;-68
2022/09/08 05:41:12;;;;;;;5.00;4.43;;;;;;;16.35;85.45;95338.13;5102817;27;20047;-68
2022/09/08 05:43:39;;;;;;;5.13;4.55;;;;;;;16.42;85.45;95335.25;5104342;27;20159;-67
2022/09/08 05:46:08;;;;;;;6.75;4.38;;;;;;;16.57;84.47;95337.97;5104762;27;20491;-68
2022/09/08 05:48:35;;;;;;;7.78;4.55;;;;;;;16.72;83.58;95339.09;5107240;27;20046;-68
2022/09/08 05:51:08;;;;;;;9.23;4.75;;;;;;;16.81;82.73;95342.78;5104405;27;20047;-67
2022/09/08 05:53:35;;;;;;;7.13;5.22;;;;;;;16.88;82.11;95327.59;5102139;28;20075;-67
2022/09/08 05:56:05;;;;;;;5.63;4.28;;;;;;;17.08;81.42;95347.13;5106876;27;20039;-67
2022/09/08 05:58:32;;;;;;;4.80;4.20;;;;;;;17.17;80.50;95351.63;5103208;27;20052;-68
2022/09/08 06:01:00;;;;;;;5.15;4.22;;;;;;;17.31;79.25;95345.88;5104855;27;20596;-68
2022/09/08 06:03:27;;;;;;;6.53;4.15;;;;;;;17.36;79.29;95338.00;5104450;27;20043;-68
2022/09/08 06:05:55;;;;;;;13.57;4.75;;;;;;;17.41;77.83;95345.09;5107216;27;20052;-68
2022/09/08 06:08:22;;;;;;;10.15;4.57;;;;;;;17.45;77.94;95340.88;5104221;27;20071;-68
2022/09/08 06:10:51;;;;;;;8.38;5.22;;;;;;;17.58;77.19;95350.91;5101644;27;20561;-68
2022/09/08 06:13:21;;;;;;;6.05;4.05;;;;;;;17.64;76.09;95352.50;5084983;28;20063;-67
2022/09/08 06:15:49;;;;;;;4.78;4.22;;;;;;;17.80;75.06;95341.97;5109434;27;20039;-68
2022/09/08 06:18:17;;;;;;;4.85;4.07;;;;;;;17.91;74.69;95339.09;5102899;27;20779;-68
2022/09/08 06:20:45;;;;;;;5.95;3.78;;;;;;;18.07;74.47;95344.34;5104789;27;20155;-68
2022/09/08 06:23:12;;;;;;;6.60;4.45;;;;;;;18.23;73.57;95350.41;5090499;27;20104;-68
2022/09/08 06:25:44;;;;;;;8.85;4.43;;;;;;;18.27;72.69;95340.91;5098264;28;20775;-68
2022/09/08 06:28:38;;;;;;;12.82;4.40;;;;;;;18.50;71.65;95350.84;5095250;27;20105;-67
2022/09/08 06:31:07;;;;;;;5.83;3.80;;;;;;;18.67;71.07;95350.56;5096523;27;20264;-67
2022/09/08 06:33:40;;;;;;;11.75;4.85;;;;;;;18.75;68.60;95351.84;5100235;27;20504;-67
2022/09/08 06:36:27;;;;;;;6.50;4.60;;;;;;;18.92;66.55;95356.81;5104041;27;20050;-66
2022/09/08 06:39:03;;;;;;;5.88;4.32;;;;;;;19.04;65.11;95353.88;5102834;27;20047;-66
2022/09/08 06:41:37;;;;;;;4.40;3.75;;;;;;;19.16;65.27;95359.63;5100184;28;20568;-66
2022/09/08 06:44:08;;;;;;;7.18;4.43;;;;;;;19.25;65.75;95358.00;5084467;28;20051;-66
2022/09/08 06:46:39;;;;;;;22.30;4.15;;;;;;;19.41;65.39;95352.59;5083675;28;20043;-66
2022/09/08 06:49:11;;;;;;;9.15;4.45;;;;;;;19.51;65.23;95347.25;5083867;28;20059;-66
2022/09/08 06:52:02;;;;;;;6.85;3.83;;;;;;;19.64;63.34;95351.94;5099991;28;20581;-66
2022/09/08 06:54:49;;;;;;;7.63;3.72;;;;;;;19.76;63.97;95359.53;5081724;28;20078;-66
2022/09/08 06:57:36;;;;;;;5.18;3.92;;;;;;;19.89;62.39;95363.41;5081676;28;20039;-66
2022/09/08 07:00:28;;;;;;;5.85;4.45;;;;;;;20.04;60.69;95365.94;5101166;28;20544;-67
2022/09/08 07:03:08;;;;;;;5.32;3.65;;;;;;;20.15;61.34;95366.63;5101185;27;20048;-66
2022/09/08 07:06:15;;;;;;;5.68;4.22;;;;;;;20.39;59.55;95377.25;5101722;27;20471;-66
2022/09/08 07:08:46;;;;;;;8.27;4.10;;;;;;;20.53;59.05;95377.38;5018995;28;20521;-66
2022/09/08 07:11:21;;;;;;;7.10;4.07;;;;;;;20.71;58.30;95378.53;5018565;28;20075;-67
2022/09/08 07:13:50;;;;;;;7.00;3.95;;;;;;;20.89;57.57;95378.88;5065669;28;20055;-67
2022/09/08 07:16:28;;;;;;;4.55;3.88;;;;;;;21.03;57.39;95374.47;5102384;27;20100;-66
2022/09/08 07:19:24;;;;;;;10.57;4.50;;;;;;;21.33;56.60;95393.69;5104062;28;20541;-66
2022/09/08 07:22:25;;;;;;;6.82;3.50;;;;;;;21.52;55.00;95391.88;5101029;28;20467;-69
2022/09/08 07:24:56;;;;;;;8.57;4.13;;;;;;;21.55;53.84;95396.59;5101296;28;20552;-72
2022/09/08 07:27:24;;;;;;;6.25;4.70;;;;;;;21.28;55.38;95391.09;5097998;27;20133;-71
2022/09/08 07:29:58;;;;;;;5.10;3.60;;;;;;;21.26;53.07;95387.97;5102015;27;20513;-71
2022/09/08 07:32:31;;;;;;;7.38;4.78;;;;;;;21.36;53.75;95398.44;5096019;28;20044;-70
2022/09/08 07:35:12;;;;;;;7.90;4.22;;;;;;;21.42;53.73;95391.97;5112296;27;20044;-69
2022/09/08 07:37:43;;;;;;;6.10;4.30;;;;;;;21.47;54.49;95378.69;5103475;27;20043;-71
2022/09/08 07:40:16;;;;;;;6.45;4.25;;;;;;;21.56;53.98;95382.25;5101356;27;20043;-71
2022/09/08 07:42:54;;;;;;;5.53;4.10;;;;;;;21.64;55.35;95382.69;5067363;28;20516;-71
2022/09/08 07:45:45;;;;;;;6.80;4.55;;;;;;;22.03;54.86;95389.53;5089828;27;20465;-73
2022/09/08 07:48:50;;;;;;;7.10;4.22;;;;;;;22.28;51.74;95386.50;5070509;27;20546;-73
2022/09/08 07:51:19;;;;;;;;;;;;;;;22.48;51.95;95389.88;5083244;28;20379;-74
2022/09/08 07:54:21;;;;;;;6.85;4.13;;;;;;;22.58;49.53;95384.38;5092418;27;19974;-75
2022/09/08 07:57:11;;;;;;;6.35;4.00;;;;;;;22.62;50.11;95390.69;5024818;27;20616;-75
2022/09/08 08:00:12;;;;;;;6.22;3.92;;;;;;;22.92;49.36;95393.81;5096241;27;20074;-75
2022/09/08 08:02:58;;;;;;;4.70;3.75;;;;;;;23.01;47.77;95391.25;5114642;27;20165;-75
2022/09/08 08:05:43;;;;;;;14.27;4.05;;;;;;;23.12;48.87;95390.03;5093964;28;20371;-75
2022/09/08 08:08:37;;;;;;;5.30;3.47;;;;;;;23.22;48.28;95375.72;5090434;27;20059;-75
2022/09/08 08:11:30;;;;;;;4.70;4.10;;;;;;;23.39;47.95;95375.91;5090273;27;20055;-75
2022/09/08 08:14:19;;;;;;;7.85;3.97;;;;;;;23.62;45.63;95383.91;5088477;27;20440;-75
2022/09/08 08:17:16;;;;;;;9.27;4.75;;;;;;;23.78;45.27;95371.84;5084565;28;20050;-70
2022/09/08 08:20:01;;;;;;;10.95;7.10;;;;;;;24.02;45.84;95382.22;5108101;27;20543;-67
2022/09/08 08:22:47;;;;;;;7.95;5.20;;;;;;;24.07;44.13;95381.28;5100310;27;20059;-75
2022/09/08 08:25:29;;;;;;;6.40;3.80;;;;;;;23.83;44.28;95374.41;5104449;27;20335;-75
2022/09/08 08:28:04;;;;;;;4.82;4.13;;;;;;;23.91;45.01;95382.75;5087209;28;21477;-73
2022/09/08 08:31:06;;;;;;;8.48;4.38;;;;;;;24.27;46.47;95376.56;5083572;28;20035;-74
2022/09/08 08:33:42;;;;;;;7.28;4.22;;;;;;;24.67;44.12;95379.28;5097195;28;20059;-70
2022/09/08 08:36:12;;;;;;;6.40;3.95;;;;;;;24.72;43.24;95373.81;5098236;28;20039;-73
2022/09/08 08:38:44;;;;;;;6.25;4.10;;;;;;;24.99;43.74;95376.28;5098263;27;20091;-71
2022/09/08 08:41:37;;;;;;;4.07;3.60;;;;;;;25.41;42.01;95380.44;5097675;28;20126;-68
2022/09/08 08:44:31;;;;;;;4.25;3.58;;;;;;;25.75;41.19;95359.16;5081523;28;20050;-67
2022/09/08 08:47:49;;;;;;;7.82;3.95;;;;;;;26.00;39.37;95364.81;5096036;28;20482;-74
2022/09/08 08:50:53;;;;;;;5.72;4.05;;;;;;;26.29;40.25;95355.34;5043551;28;20048;-76
2022/09/08 08:53:29;;;;;;;8.25;7.25;;;;;;;26.54;40.94;95361.66;5094077;28;20040;-75
2022/09/08 08:56:39;;;;;;;6.50;3.97;;;;;;;26.64;38.57;95358.69;5099323;28;20043;-76
2022/09/08 08:59:06;;;;;;;4.47;3.63;;;;;;;26.39;38.31;95340.84;5080911;28;20062;-76
2022/09/08 09:02:11;;;;;;;7.22;3.80;;;;;;;26.60;38.38;95338.25;5105216;28;20114;-75
2022/09/08 09:04:37;;;;;;;;;;;;;;;26.52;37.84;95343.31;5082860;28;20183;-76
2022/09/08 09:07:13;;;;;;;4.80;3.80;;;;;;;26.30;37.82;95340.88;5104084;28;19966;-76
2022/09/08 09:10:05;;;;;;;6.45;3.90;;;;;;;26.30;37.67;95330.19;5079159;28;20075;-76
2022/09/08 09:12:41;;;;;;;8.45;3.88;;;;;;;26.30;38.97;95324.84;5098313;28;20047;-76
2022/09/08 09:15:24;;;;;;;3.92;3.53;;;;;;;26.60;38.77;95327.56;5106694;28;20043;-76
2022/09/08 09:18:35;;;;;;;14.70;3.97;;;;;;;27.09;38.46;95323.38;5079728;28;20063;-76
2022/09/08 09:21:34;;;;;;;8.25;3.63;;;;;;;27.34;35.96;95317.44;5100173;28;20036;-76
2022/09/08 09:24:18;;;;;;;10.43;4.35;;;;;;;27.31;37.27;95304.72;5103485;28;20405;-76
2022/09/08 09:26:51;;;;;;;5.57;3.75;;;;;;;27.22;37.24;95302.84;5100963;28;20123;-76
2022/09/08 09:29:25;;;;;;;6.97;3.47;;;;;;;27.48;37.25;95307.28;5083818;28;20063;-75
2022/09/08 09:32:43;;;;;;;4.75;4.13;;;;;;;27.60;37.69;95306.53;5082810;28;20356;-76
2022/09/08 09:35:10;;;;;;;4.50;3.63;;;;;;;27.70;36.20;95308.03;5037992;28;20063;-75
2022/09/08 09:37:59;;;;;;;9.15;4.05;;;;;;;27.50;36.77;95297.03;5084262;28;20491;-76
2022/09/08 09:40:50;;;;;;;6.72;4.25;;;;;;;27.56;37.22;95298.38;5099760;28;20053;-76
2022/09/08 09:43:48;;;;;;;4.20;3.80;;;;;;;27.60;37.01;95295.81;5084268;28;20039;-75
2022/09/08 09:46:24;;;;;;;6.32;4.18;;;;;;;27.65;36.11;95301.75;5080180;28;20035;-76
2022/09/08 09:49:22;;;;;;;8.52;4.50;;;;;;;27.54;37.21;95297.91;5082299;28;20492;-75
2022/09/08 09:51:58;;;;;;;9.05;4.32;;;;;;;27.53;37.17;95299.06;5102229;28;20036;-75
2022/09/08 09:54:52;;;;;;;5.13;3.92;;;;;;;27.70;37.02;95291.97;5083114;28;20050;-67
2022/09/08 09:57:33;;;;;;;21.30;4.28;;;;;;;27.79;37.26;95285.41;5084372;28;20059;-69
2022/09/08 10:00:20;;;;;;;5.47;4.05;;;;;;;27.95;36.45;95277.56;5102030;27;20039;-74
2022/09/08 10:03:32;;;;;;;5.18;4.22;;;;;;;28.14;36.22;95278.94;5096481;27;20128;-72
2022/09/08 10:06:11;;;;;;;10.48;3.88;;;;;;;28.21;36.03;95268.47;5099846;27;20093;-79
2022/09/08 10:08:58;;;;;;;7.18;3.80;;;;;;;28.29;34.92;95264.91;5082687;27;20098;-79
2022/09/08 10:11:55;;;;;;;8.63;5.57;;;;;;;28.40;35.02;95260.69;5103455;27;20050;-80
2022/09/08 10:14:44;;;;;;;546.47;276.88;;;;;;;28.60;34.53;95231.47;5086634;27;20051;-76
2022/09/08 10:17:37;;;;;;;10.55;8.50;;;;;;;28.71;33.89;95243.28;5083352;28;20036;-76
2022/09/08 10:20:36;;;;;;;350.00;148.02;;;;;;;28.69;35.44;95242.84;5032364;28;20051;-75
2022/09/08 10:23:35;;;;;;;1079.15;478.33;;;;;;;29.05;34.14;95235.84;5085001;28;20059;-75
2022/09/08 10:26:14;;;;;;;617.85;233.77;;;;;;;29.39;33.90;95239.13;5095498;27;20105;-75
2022/09/08 10:29:06;;;;;;;35.10;18.52;;;;;;;29.47;34.26;95235.47;5094242;27;20038;-74
2022/09/08 10:31:33;;;;;;;6.53;4.65;;;;;;;29.62;34.39;95230.50;5108309;27;20039;-67
2022/09/08 10:34:34;;;;;;;8.30;4.18;;;;;;;29.72;33.23;95235.38;5104532;27;20047;-67
2022/09/08 10:37:23;;;;;;;9.60;4.13;;;;;;;29.95;33.51;95224.09;5100922;28;20031;-68
2022/09/08 10:40:38;;;;;;;8.10;3.75;;;;;;;29.26;33.63;95218.81;5098603;27;20138;-70
2022/09/08 10:43:36;;;;;;;5.68;3.80;;;;;;;29.61;33.93;95213.63;5017424;27;20042;-72
2022/09/08 10:46:27;;;;;;;7.85;4.53;;;;;;;30.04;34.21;95214.75;5099084;27;20033;-72
2022/09/08 10:49:32;;;;;;;7.47;3.78;;;;;;;29.97;33.25;95208.41;5103199;27;20051;-69
2022/09/08 10:52:30;;;;;;;10.23;3.60;;;;;;;29.46;34.91;95207.13;5097029;27;20040;-69
2022/09/08 10:55:27;;;;;;;6.65;4.53;;;;;;;30.00;33.78;95208.50;5094929;27;20196;-70
2022/09/08 10:58:35;;;;;;;5.35;3.67;;;;;;;30.34;32.40;95210.84;5096461;27;20032;-70
2022/09/08 11:01:34;;;;;;;10.38;4.43;;;;;;;30.72;32.58;95204.00;5095337;27;20586;-69
2022/09/08 11:04:08;;;;;;;6.78;3.65;;;;;;;31.18;32.19;95209.59;5027359;28;20049;-70
2022/09/08 11:06:34;;;;;;;;;;;;;;;31.53;32.57;95211.44;5094927;27;20032;-70
2022/09/08 11:09:35;;;;;;;5.18;3.70;;;;;;;31.68;30.62;95194.41;5096527;27;19934;-70
2022/09/08 11:12:38;;;;;;;8.80;3.92;;;;;;;32.07;30.83;95199.72;5079024;27;20043;-70
2022/09/08 11:15:35;;;;;;;7.07;4.25;;;;;;;32.33;29.75;95200.88;5098752;27;20043;-70
2022/09/08 11:18:40;;;;;;;5.43;3.78;;;;;;;32.41;29.55;95201.75;5098383;27;20054;-69
2022/09/08 11:21:10;;;;;;;5.22;3.58;;;;;;;32.74;29.36;95193.81;5052675;27;20445;-69
2022/09/08 11:24:17;;;;;;;6.82;3.85;;;;;;;32.76;28.92;95190.75;5098239;27;20101;-69
2022/09/08 11:27:04;;;;;;;33.42;6.97;;;;;;;32.90;29.79;95190.94;5082266;27;20032;-67
2022/09/08 11:29:38;;;;;;;93.65;21.38;;;;;;;33.20;28.98;95187.44;5096588;27;20055;-77
2022/09/08 11:32:14;;;;;;;9.40;4.45;;;;;;;33.49;28.25;95183.16;5064919;27;20155;-75
2022/09/08 11:34:48;;;;;;;33.05;8.85;;;;;;;33.70;28.07;95176.44;5080828;27;20097;-76
2022/09/08 11:37:36;;;;;;;32.35;9.20;;;;;;;33.91;28.08;95192.06;5082339;27;20629;-68
2022/09/08 11:40:25;;;;;;;7.20;3.55;;;;;;;34.02;27.07;95187.50;5082070;27;20039;-73
2022/09/08 11:43:01;;;;;;;9.35;3.95;;;;;;;33.51;27.48;95190.84;5099560;27;20032;-73
2022/09/08 11:45:51;;;;;;;107.50;25.40;;;;;;;33.83;27.40;95190.44;5099106;27;20052;-72
2022/09/08 11:48:54;;;;;;;53.60;12.88;;;;;;;34.09;27.19;95194.91;5099910;28;20043;-73
2022/09/08 11:51:44;;;;;;;10.07;3.95;;;;;;;34.05;26.90;95191.38;5098948;27;20044;-73
2022/09/08 11:55:06;;;;;;;66.22;14.45;;;;;;;34.13;27.51;95182.19;5098624;27;20046;-73
2022/09/08 11:57:42;;;;;;;113.38;25.02;;;;;;;33.63;27.32;95187.91;5101470;27;20737;-73
2022/09/08 12:00:13;;;;;;;7.22;3.42;;;;;;;33.38;27.64;95181.47;5073994;28;20054;-74
2022/09/08 12:03:31;;;;;;;4.18;3.42;;;;;;;34.01;27.52;95190.59;5076206;28;20043;-73
2022/09/08 12:06:37;;;;;;;9.38;4.53;;;;;;;34.64;26.33;95194.91;5076026;28;20595;-74
2022/09/08 12:09:24;;;;;;;112.45;21.85;;;;;;;35.09;25.96;95192.06;5076374;28;20048;-73
2022/09/08 12:11:59;;;;;;;20.45;7.85;;;;;;;35.61;25.28;95189.91;5074490;28;20540;-74
2022/09/08 12:14:26;;;;;;;10.25;3.38;;;;;;;36.19;24.28;95190.00;5078430;28;20728;-73
2022/09/08 12:17:20;;;;;;;4.47;3.40;;;;;;;36.35;23.59;95190.38;5077926;28;20156;-73
2022/09/08 12:20:01;;;;;;;5.22;3.30;;;;;;;36.38;23.51;95193.50;5078870;28;20086;-73
2022/09/08 12:23:03;;;;;;;10.10;4.25;;;;;;;36.03;24.21;95186.91;5078067;28;20617;-68
2022/09/08 12:25:45;;;;;;;64.47;16.30;;;;;;;36.55;23.50;95190.75;5083240;28;20417;-67
2022/09/08 12:29:13;;;;;;;19.30;6.32;;;;;;;36.43;23.64;95193.09;5081061;28;20039;-67